createdAt,value
2022-10-23T00:01:57.187Z,99922.66
2022-10-23T00:04:26.748Z,99953.25
2022-10-23T00:06:56.095Z,99951.28
2022-10-23T00:09:26.965Z,99942.47
2022-10-23T00:11:56.261Z,99941.72
2022-10-23T00:14:26.462Z,99923.34
2022-10-23T00:16:55.650Z,99943.94
2022-10-23T00:19:25.066Z,99941.56
2022-10-23T00:21:54.275Z,99925.00
2022-10-23T00:24:23.513Z,99932.13
2022-10-23T00:26:54.141Z,99922.53
2022-10-23T00:29:23.333Z,99926.91
2022-10-23T00:31:52.446Z,99933.66
2022-10-23T00:36:50.928Z,99936.78
2022-10-23T00:39:20.074Z,99937.09
2022-10-23T00:41:49.218Z,99926.69
2022-10-23T00:45:17.164Z,99925.44
2022-10-23T00:47:47.333Z,99932.44
2022-10-23T00:50:17.205Z,99935.38
2022-10-23T00:52:50.656Z,99933.75
2022-10-23T00:55:24.224Z,99933.25
2022-10-23T00:57:54.461Z,99935.88
2022-10-23T01:00:28.609Z,99923.56
2022-10-23T01:02:58.803Z,99921.09
2022-10-23T01:05:38.356Z,99930.97
2022-10-23T01:08:18.625Z,99921.03
2022-10-23T01:10:55.478Z,99926.63
2022-10-23T01:13:41.405Z,99917.78
2022-10-23T01:16:18.972Z,99915.44
2022-10-23T01:18:58.417Z,99913.50
2022-10-23T01:21:43.396Z,99916.25
2022-10-23T01:24:28.720Z,99883.28
2022-10-23T01:27:21.061Z,99907.59
2022-10-23T01:30:04.040Z,99898.53
2022-10-23T01:32:45.720Z,99900.22
2022-10-23T01:35:19.930Z,99895.91
2022-10-23T01:38:02.662Z,99898.63
2022-10-23T01:40:37.268Z,99893.81
2022-10-23T01:43:14.286Z,99874.63
2022-10-23T01:45:47.170Z,99892.84
2022-10-23T01:48:27.720Z,99881.06
2022-10-23T01:51:01.688Z,99870.78
2022-10-23T01:53:35.399Z,99859.78
2022-10-23T01:56:08.569Z,99866.06
2022-10-23T01:58:41.073Z,99853.97
2022-10-23T02:01:13.265Z,99843.97
2022-10-23T02:03:51.935Z,99839.97
2022-10-23T02:06:21.425Z,99840.06
2022-10-23T02:08:51.274Z,99835.91
2022-10-23T02:11:22.717Z,99836.44
2022-10-23T02:14:00.885Z,99837.09
2022-10-23T02:16:40.397Z,99840.28
2022-10-23T02:19:21.952Z,99842.53
2022-10-23T02:21:56.802Z,99838.84
2022-10-23T02:24:32.968Z,99836.94
2022-10-23T02:27:09.196Z,99836.63
2022-10-23T02:29:45.494Z,99830.81
2022-10-23T02:32:17.726Z,99825.81
2022-10-23T02:34:49.558Z,99811.22
2022-10-23T02:37:19.000Z,99822.03
2022-10-23T02:39:49.317Z,99818.91
2022-10-23T02:42:25.167Z,99816.16
2022-10-23T02:45:08.408Z,99809.06
2022-10-23T02:47:52.921Z,99814.72
2022-10-23T02:50:30.523Z,99811.06
2022-10-23T02:53:07.608Z,99794.13
2022-10-23T02:55:54.932Z,99792.72
2022-10-23T02:58:32.618Z,99753.88
2022-10-23T03:01:11.892Z,99765.31
2022-10-23T03:03:46.934Z,99768.47
2022-10-23T03:06:17.613Z,99756.34
2022-10-23T03:08:55.037Z,99758.34
2022-10-23T03:11:27.046Z,99737.38
2022-10-23T03:13:57.896Z,99749.69
2022-10-23T03:16:29.511Z,99749.78
2022-10-23T03:18:58.744Z,99751.41
2022-10-23T03:21:28.059Z,99753.75
2022-10-23T03:23:57.866Z,99738.25
2022-10-23T03:26:36.619Z,99756.13
2022-10-23T03:29:07.229Z,99744.25
2022-10-23T03:31:44.289Z,99758.16
2022-10-23T03:34:15.083Z,99744.78
2022-10-23T03:36:44.973Z,99742.75
2022-10-23T03:39:14.258Z,99740.88
2022-10-23T03:41:44.771Z,99733.34
2022-10-23T03:44:13.965Z,99729.81
2022-10-23T03:46:47.753Z,99726.94
2022-10-23T03:49:17.001Z,99713.44
2022-10-23T03:51:52.052Z,99707.97
2022-10-23T03:54:25.702Z,99708.34
2022-10-23T03:56:57.497Z,99698.47
2022-10-23T03:59:29.189Z,99690.50
2022-10-23T04:01:59.936Z,99676.41
2022-10-23T04:04:29.497Z,99670.91
2022-10-23T04:06:58.853Z,99670.09
2022-10-23T04:09:28.834Z,99660.66
2022-10-23T04:11:58.737Z,99657.94
2022-10-23T04:14:30.609Z,99626.59
2022-10-23T04:17:01.203Z,99669.72
2022-10-23T04:19:30.879Z,99653.19
2022-10-23T04:22:00.088Z,99635.06
2022-10-23T04:24:29.457Z,99654.78
2022-10-23T04:26:58.819Z,99671.69
2022-10-23T04:29:32.498Z,99661.34
2022-10-23T04:32:03.300Z,99662.94
2022-10-23T04:34:32.465Z,99652.34
2022-10-23T04:37:01.624Z,99649.56
2022-10-23T04:39:30.898Z,99639.41
2022-10-23T04:42:00.079Z,99626.81
2022-10-23T04:44:29.293Z,99633.09
2022-10-23T04:46:58.484Z,99615.00
2022-10-23T04:49:29.149Z,99605.81
2022-10-23T04:52:16.934Z,99596.03
2022-10-23T04:55:08.893Z,99595.31
2022-10-23T04:57:45.884Z,99587.47
2022-10-23T05:00:17.290Z,99583.78
2022-10-23T05:02:51.899Z,99590.97
2022-10-23T05:05:23.866Z,99585.03
2022-10-23T05:08:04.848Z,99543.50
2022-10-23T05:10:52.566Z,99564.25
2022-10-23T05:13:22.401Z,99551.63
2022-10-23T05:15:53.556Z,99552.91
2022-10-23T05:18:28.289Z,99556.53
2022-10-23T05:21:05.396Z,99551.41
2022-10-23T05:23:37.078Z,99558.50
2022-10-23T05:26:07.015Z,99545.91
2022-10-23T05:28:37.925Z,99544.34
2022-10-23T05:31:08.448Z,99550.25
2022-10-23T05:33:41.370Z,99545.94
2022-10-23T05:36:15.154Z,99538.44
2022-10-23T05:38:47.461Z,99514.25
2022-10-23T05:41:19.452Z,99532.53
2022-10-23T05:43:49.816Z,99523.09
2022-10-23T05:46:45.568Z,99527.03
2022-10-23T05:49:26.445Z,99532.53
2022-10-23T05:52:23.212Z,99545.84
2022-10-23T05:55:18.679Z,99543.78
2022-10-23T05:58:06.941Z,99543.03
2022-10-23T06:00:59.421Z,99518.25
2022-10-23T06:03:58.044Z,99511.97
2022-10-23T06:06:37.532Z,99515.13
2022-10-23T06:09:08.272Z,99519.84
2022-10-23T06:11:41.770Z,99522.19
2022-10-23T06:14:15.918Z,99524.56
2022-10-23T06:16:45.746Z,99517.53
2022-10-23T06:19:15.253Z,99511.16
2022-10-23T06:21:45.858Z,99489.09
2022-10-23T06:24:18.568Z,99500.63
2022-10-23T06:26:57.038Z,99491.97
2022-10-23T06:29:41.687Z,99472.28
2022-10-23T06:32:11.014Z,99468.72
2022-10-23T06:34:41.514Z,99466.00
2022-10-23T06:37:11.484Z,99470.38
2022-10-23T06:39:50.112Z,99471.50
2022-10-23T06:42:35.214Z,99447.09
2022-10-23T06:45:27.470Z,99446.28
2022-10-23T06:48:22.889Z,99441.94
2022-10-23T06:51:08.012Z,99436.38
2022-10-23T06:53:43.594Z,99438.38
2022-10-23T06:56:36.664Z,99435.56
2022-10-23T06:59:09.243Z,99432.44
2022-10-23T07:01:40.301Z,99432.44
2022-10-23T07:04:10.646Z,99431.25
2022-10-23T07:06:40.210Z,99425.69
2022-10-23T07:09:10.297Z,99430.03
2022-10-23T07:12:00.859Z,99431.53
2022-10-23T07:14:38.293Z,99429.16
2022-10-23T07:17:08.464Z,99419.72
2022-10-23T07:19:37.610Z,99417.44
2022-10-23T07:22:14.928Z,99416.59
2022-10-23T07:24:49.404Z,99424.44
2022-10-23T07:27:27.185Z,99405.75
2022-10-23T07:29:59.009Z,99420.13
2022-10-23T07:32:31.958Z,99414.22
2022-10-23T07:35:04.117Z,99413.03
2022-10-23T07:37:36.519Z,99414.25
2022-10-23T07:40:08.503Z,99406.41
2022-10-23T07:42:46.255Z,99398.53
2022-10-23T07:45:16.799Z,99397.38
2022-10-23T07:47:53.025Z,99390.69
2022-10-23T07:50:25.630Z,99385.16
2022-10-23T07:52:54.771Z,99381.59
2022-10-23T07:55:27.356Z,99370.44
2022-10-23T07:58:06.123Z,99374.78
2022-10-23T08:00:42.455Z,99371.22
2022-10-23T08:03:19.082Z,99373.66
2022-10-23T08:05:49.474Z,99369.72
2022-10-23T08:08:18.719Z,99345.13
2022-10-23T08:10:52.413Z,99358.31
2022-10-23T08:13:29.659Z,99363.41
2022-10-23T08:16:03.598Z,99358.25
2022-10-23T08:18:53.496Z,99344.41
2022-10-23T08:21:22.882Z,99349.66
2022-10-23T08:23:56.003Z,99350.06
2022-10-23T08:26:27.080Z,99350.78
2022-10-23T08:28:59.249Z,99351.94
2022-10-23T08:31:29.721Z,99350.44
2022-10-23T08:34:15.435Z,99353.97
2022-10-23T08:36:47.233Z,99331.53
2022-10-23T08:39:17.503Z,99331.56
2022-10-23T08:42:07.086Z,99344.84
2022-10-23T08:44:48.900Z,99331.47
2022-10-23T08:47:30.986Z,99329.25
2022-10-23T08:50:42.279Z,99321.22
2022-10-23T08:53:21.503Z,99329.19
2022-10-23T08:56:00.790Z,99316.50
2022-10-23T08:58:40.286Z,99329.50
2022-10-23T09:01:34.289Z,99317.66
2022-10-23T09:04:05.193Z,99306.25
2022-10-23T09:06:40.817Z,99326.75
2022-10-23T09:09:45.411Z,99318.50
2022-10-23T09:12:16.846Z,99330.66
2022-10-23T09:15:03.645Z,99319.66
2022-10-23T09:17:36.148Z,99302.28
2022-10-23T09:20:19.291Z,99318.88
2022-10-23T09:22:50.081Z,99303.03
2022-10-23T09:25:23.358Z,99310.94
2022-10-23T09:27:57.444Z,99318.09
2022-10-23T09:30:36.247Z,99307.13
2022-10-23T09:33:20.638Z,99318.47
2022-10-23T09:35:59.297Z,99306.03
2022-10-23T09:38:36.568Z,99312.66
2022-10-23T09:41:19.110Z,99297.75
2022-10-23T09:43:48.596Z,99304.00
2022-10-23T09:46:22.531Z,99320.25
2022-10-23T09:49:02.143Z,99303.72
2022-10-23T09:51:34.614Z,99303.41
2022-10-23T09:54:03.880Z,99298.75
2022-10-23T09:56:37.470Z,99289.28
2022-10-23T09:59:22.974Z,99302.78
2022-10-23T10:01:55.374Z,99296.44
2022-10-23T10:04:55.439Z,99304.91
2022-10-23T10:07:28.636Z,99298.28
2022-10-23T10:09:59.953Z,99291.66
2022-10-23T10:12:59.096Z,99288.88
2022-10-23T10:15:35.614Z,99278.28
2022-10-23T10:18:15.896Z,99289.72
2022-10-23T10:21:09.494Z,99273.97
2022-10-23T10:23:48.578Z,99278.78
2022-10-23T10:26:35.577Z,99279.97
2022-10-23T10:29:18.370Z,99268.56
2022-10-23T10:32:07.287Z,99261.44
2022-10-23T10:34:48.222Z,99255.91
2022-10-23T10:37:34.663Z,99259.47
2022-10-23T10:40:17.579Z,99264.59
2022-10-23T10:42:58.747Z,99244.06
2022-10-23T10:45:34.676Z,99251.97
2022-10-23T10:48:33.387Z,99253.53
2022-10-23T10:51:35.853Z,99242.13
2022-10-23T10:54:31.068Z,99240.25
2022-10-23T10:57:05.177Z,99216.97
2022-10-23T10:59:42.552Z,99236.72
2022-10-23T11:02:28.985Z,99230.78
2022-10-23T11:05:13.937Z,99235.47
2022-10-23T11:07:52.077Z,99227.81
2022-10-23T11:10:22.907Z,99235.72
2022-10-23T11:12:53.588Z,99227.94
2022-10-23T11:15:29.754Z,99220.84
2022-10-23T11:18:03.073Z,99225.09
2022-10-23T11:20:55.387Z,99238.56
2022-10-23T11:24:14.271Z,99233.16
2022-10-23T11:27:09.509Z,99232.53
2022-10-23T11:30:02.825Z,99233.34
2022-10-23T11:33:21.324Z,99232.41
2022-10-23T11:36:02.217Z,99219.16
2022-10-23T11:38:35.843Z,99216.53
2022-10-23T11:41:08.130Z,99219.09
2022-10-23T11:43:51.778Z,99220.78
2022-10-23T11:46:40.331Z,99223.38
2022-10-23T11:49:24.230Z,99220.38
2022-10-23T11:52:02.527Z,99213.38
2022-10-23T11:54:31.933Z,99224.69
2022-10-23T11:57:14.328Z,99210.69
2022-10-23T11:59:55.807Z,99221.81
2022-10-23T12:02:32.462Z,99197.75
2022-10-23T12:05:06.311Z,99213.47
2022-10-23T12:07:39.740Z,99212.34
2022-10-23T12:10:31.255Z,99209.06
2022-10-23T12:13:03.958Z,99199.25
2022-10-23T12:15:35.524Z,99205.16
2022-10-23T12:18:16.749Z,99199.13
2022-10-23T12:20:52.885Z,99191.38
2022-10-23T12:24:04.234Z,99198.84
2022-10-23T12:26:59.044Z,99195.63
2022-10-23T12:29:47.348Z,99184.44
2022-10-23T12:32:38.234Z,99182.19
2022-10-23T12:35:28.319Z,99191.84
2022-10-23T12:38:16.402Z,99182.84
2022-10-23T12:40:47.343Z,99172.91
2022-10-23T12:43:29.169Z,99163.59
2022-10-23T12:46:04.290Z,99159.06
2022-10-23T12:48:36.126Z,99165.38
2022-10-23T12:51:05.443Z,99150.94
2022-10-23T12:53:34.653Z,99150.78
2022-10-23T12:56:15.473Z,99160.34
2022-10-23T12:58:52.892Z,99145.88
2022-10-23T13:01:28.664Z,99131.75
2022-10-23T13:04:05.889Z,99135.09
2022-10-23T13:06:35.304Z,99134.56
2022-10-23T13:09:06.630Z,99124.78
2022-10-23T13:12:02.032Z,99127.34
2022-10-23T13:14:40.631Z,99115.31
2022-10-23T13:17:13.669Z,99108.94
2022-10-23T13:19:47.343Z,99108.66
2022-10-23T13:22:25.314Z,99092.22
2022-10-23T13:24:54.439Z,99105.16
2022-10-23T13:27:32.818Z,99092.75
2022-10-23T13:30:03.271Z,99100.19
2022-10-23T13:32:34.128Z,99089.66
2022-10-23T13:35:21.413Z,99081.44
2022-10-23T13:37:51.834Z,99077.84
2022-10-23T13:40:27.109Z,99083.41
2022-10-23T13:42:58.970Z,99076.50
2022-10-23T13:45:28.844Z,99076.63
2022-10-23T13:47:58.221Z,99074.44
2022-10-23T13:50:28.773Z,99066.56
2022-10-23T13:52:58.481Z,99067.75
2022-10-23T13:55:28.398Z,99066.69
2022-10-23T13:58:00.524Z,99067.47
2022-10-23T14:00:29.620Z,99068.13
2022-10-23T14:03:01.222Z,99066.53
2022-10-23T14:05:32.293Z,99074.91
2022-10-23T14:08:05.161Z,99061.34
2022-10-23T14:10:35.119Z,99059.31
2022-10-23T14:13:04.333Z,99059.31
2022-10-23T14:15:35.598Z,99042.41
2022-10-23T14:18:08.472Z,99062.34
2022-10-23T14:20:40.313Z,99060.09
2022-10-23T14:23:09.453Z,99059.69
2022-10-23T14:25:38.651Z,99056.31
2022-10-23T14:28:07.978Z,99064.69
2022-10-23T14:30:38.201Z,99064.13
2022-10-23T14:33:07.449Z,99065.81
2022-10-23T14:35:40.155Z,99073.34
2022-10-23T14:38:11.299Z,99057.91
2022-10-23T14:40:40.804Z,99060.47
2022-10-23T14:43:10.080Z,99064.03
2022-10-23T14:45:39.252Z,99057.28
2022-10-23T14:48:11.467Z,99056.28
2022-10-23T14:50:48.941Z,99060.94
2022-10-23T14:53:19.939Z,99058.81
2022-10-23T14:55:51.928Z,99058.69
2022-10-23T14:58:23.462Z,99060.25
2022-10-23T15:01:00.181Z,99058.25
2022-10-23T15:03:31.068Z,99061.78
2022-10-23T15:06:00.289Z,99064.56
2022-10-23T15:08:30.876Z,99063.03
2022-10-23T15:11:02.314Z,99061.94
2022-10-23T15:13:32.135Z,99052.50
2022-10-23T15:16:06.710Z,99054.53
2022-10-23T15:21:11.738Z,99041.41
2022-10-23T15:23:46.528Z,99043.78
2022-10-23T15:26:25.628Z,99052.50
2022-10-23T15:28:56.596Z,99045.38
2022-10-23T15:31:45.912Z,99034.13
2022-10-23T15:34:18.919Z,99044.50
2022-10-23T15:36:49.033Z,99042.31
2022-10-23T15:39:22.210Z,99036.31
2022-10-23T15:41:53.808Z,99029.19
2022-10-23T15:44:24.720Z,99035.53
2022-10-23T15:46:53.890Z,99036.41
2022-10-23T15:49:26.550Z,99030.28
2022-10-23T15:51:55.727Z,99035.63
2022-10-23T15:54:29.392Z,99033.50
2022-10-23T15:57:01.503Z,99026.97
2022-10-23T15:59:32.333Z,99014.00
2022-10-23T16:02:01.858Z,99015.41
2022-10-23T16:04:31.406Z,99012.25
2022-10-23T16:07:02.538Z,99014.72
2022-10-23T16:09:33.078Z,99014.63
2022-10-23T16:12:02.253Z,99017.16
2022-10-23T16:14:31.354Z,99003.94
2022-10-23T16:17:00.457Z,99015.25
2022-10-23T16:19:29.569Z,99021.44
2022-10-23T16:21:58.728Z,99012.13
2022-10-23T16:24:27.848Z,99020.16
2022-10-23T16:26:58.524Z,99029.03
2022-10-23T16:29:29.688Z,99014.88
2022-10-23T16:31:59.971Z,99014.94
2022-10-23T16:34:29.175Z,99016.56
2022-10-23T16:36:58.580Z,99019.41
2022-10-23T16:39:50.620Z,99012.47
2022-10-23T16:42:41.932Z,99009.00
2022-10-23T16:45:37.924Z,99001.56
2022-10-23T16:48:07.579Z,99005.16
2022-10-23T16:53:13.191Z,98987.44
2022-10-23T16:55:42.596Z,98996.09
2022-10-23T16:58:13.217Z,98998.94
2022-10-23T17:00:42.598Z,98995.41
2022-10-23T17:03:11.819Z,99001.31
2022-10-23T17:05:40.912Z,99003.69
2022-10-23T17:08:10.028Z,99012.81
2022-10-23T17:10:42.029Z,99015.59
2022-10-23T17:13:12.771Z,99017.59
2022-10-23T17:15:47.133Z,99012.09
2022-10-23T17:18:16.396Z,99031.84
2022-10-23T17:20:45.565Z,99034.22
2022-10-23T17:23:14.916Z,99024.78
2022-10-23T17:25:44.143Z,99025.94
2022-10-23T17:28:17.092Z,99026.34
2022-10-23T17:30:46.381Z,99031.88
2022-10-23T17:33:15.658Z,99025.13
2022-10-23T17:35:46.416Z,99024.34
2022-10-23T17:38:19.236Z,99031.09
2022-10-23T17:40:49.059Z,99028.31
2022-10-23T17:43:19.690Z,99019.63
2022-10-23T17:45:48.857Z,99025.56
2022-10-23T17:48:18.101Z,99028.72
2022-10-23T17:50:47.636Z,99032.28
2022-10-23T17:53:16.816Z,99031.88
2022-10-23T17:55:45.995Z,99038.56
2022-10-23T17:58:17.533Z,99041.72
2022-10-23T18:00:48.052Z,99041.72
2022-10-23T18:03:20.839Z,99031.03
2022-10-23T18:05:50.035Z,99037.78
2022-10-23T18:08:19.472Z,99044.47
2022-10-23T18:10:51.381Z,99042.13
2022-10-23T18:13:20.620Z,99040.53
2022-10-23T18:15:51.746Z,99038.56
2022-10-23T18:18:22.690Z,99035.41
2022-10-23T18:20:51.795Z,99027.91
2022-10-23T18:23:20.971Z,99035.00
2022-10-23T18:25:50.107Z,99030.28
2022-10-23T18:28:25.324Z,99016.47
2022-10-23T18:30:57.146Z,99028.72
2022-10-23T18:33:26.791Z,99035.03
2022-10-23T18:35:57.035Z,99035.81
2022-10-23T18:38:26.328Z,99042.50
2022-10-23T18:40:57.430Z,99044.47
2022-10-23T18:43:42.465Z,99050.81
2022-10-23T18:46:14.997Z,99046.88
2022-10-23T18:48:45.325Z,99037.00
2022-10-23T18:51:16.743Z,99043.28
2022-10-23T18:53:47.820Z,99044.50
2022-10-23T18:56:22.263Z,99043.69
2022-10-23T18:58:52.440Z,99045.69
2022-10-23T19:01:24.600Z,99044.47
2022-10-23T19:06:29.806Z,99048.81
2022-10-23T19:08:59.030Z,99048.78
2022-10-23T19:11:30.063Z,99045.66
2022-10-23T19:14:00.459Z,99049.97
2022-10-23T19:16:36.546Z,99051.94
2022-10-23T19:19:12.093Z,99051.53
2022-10-23T19:21:43.246Z,99049.16
2022-10-23T19:24:21.182Z,99057.44
2022-10-23T19:26:51.204Z,99065.31
2022-10-23T19:29:24.393Z,99059.78
2022-10-23T19:31:55.389Z,99062.50
2022-10-23T19:34:25.703Z,99071.97
2022-10-23T19:36:55.999Z,99074.34
2022-10-23T19:39:26.187Z,99064.88
2022-10-23T19:41:55.804Z,99055.41
2022-10-23T19:44:25.194Z,99061.34
2022-10-23T19:46:55.882Z,99049.50
2022-10-23T19:49:25.106Z,99060.13
2022-10-23T19:51:57.897Z,99068.00
2022-10-23T19:54:28.038Z,99070.38
2022-10-23T19:56:57.525Z,99065.19
2022-10-23T19:59:32.265Z,99070.31
2022-10-23T20:02:03.518Z,99069.88
2022-10-23T20:04:33.053Z,99065.13
2022-10-23T20:07:02.615Z,99071.47
2022-10-23T20:09:33.205Z,99063.94
2022-10-23T20:12:03.876Z,99062.38
2022-10-23T20:14:33.428Z,99065.13
2022-10-23T20:17:05.219Z,99063.94
2022-10-23T20:19:35.070Z,99071.03
2022-10-23T20:22:04.742Z,99066.31
2022-10-23T20:24:34.152Z,99068.69
2022-10-23T20:27:03.378Z,99058.81
2022-10-23T20:29:32.760Z,99056.84
2022-10-23T20:32:03.561Z,99057.59
2022-10-23T20:34:34.879Z,99053.63
2022-10-23T20:37:04.338Z,99045.38
2022-10-23T20:39:35.741Z,99042.56
2022-10-23T20:42:08.699Z,99041.34
2022-10-23T20:44:38.338Z,99035.84
2022-10-23T20:47:09.143Z,99033.03
2022-10-23T20:49:39.327Z,99037.75
2022-10-23T20:52:08.535Z,99038.53
2022-10-23T20:54:38.334Z,99043.28
2022-10-23T20:57:10.488Z,99042.44
2022-10-23T20:59:43.078Z,99050.66
2022-10-23T21:02:13.628Z,99040.00
2022-10-23T21:04:43.108Z,99036.03
2022-10-23T21:07:12.402Z,99041.13
2022-10-23T21:09:41.720Z,99044.25
2022-10-23T21:12:11.237Z,99046.19
2022-10-23T21:14:40.497Z,99050.50
2022-10-23T21:17:12.152Z,99034.31
2022-10-23T21:19:42.809Z,99046.56
2022-10-23T21:22:13.925Z,99036.63
2022-10-23T21:24:43.112Z,99038.16
2022-10-23T21:27:15.112Z,99031.84
2022-10-23T21:29:44.651Z,99040.06
2022-10-23T21:32:13.771Z,99045.16
2022-10-23T21:34:44.644Z,99052.25
2022-10-23T21:37:16.843Z,99044.38
2022-10-23T21:39:47.271Z,99040.81
2022-10-23T21:42:16.645Z,99045.91
2022-10-23T21:44:46.136Z,99040.38
2022-10-23T21:47:15.400Z,99048.63
2022-10-23T21:49:46.064Z,99043.50
2022-10-23T21:52:17.636Z,99042.66
2022-10-23T21:54:53.728Z,99049.34
2022-10-23T21:57:23.095Z,99039.47
2022-10-23T21:59:53.398Z,99037.09
2022-10-23T22:02:28.007Z,99040.28
2022-10-23T22:04:58.549Z,99042.59
2022-10-23T22:09:57.882Z,99042.59
2022-10-23T22:12:29.399Z,99044.09
2022-10-23T22:14:58.564Z,99041.75
2022-10-23T22:17:28.189Z,99046.47
2022-10-23T22:19:58.714Z,99029.09
2022-10-23T22:22:30.232Z,99019.19
2022-10-23T22:24:59.978Z,99048.03
2022-10-23T22:27:29.400Z,99034.66
2022-10-23T22:30:03.850Z,99036.22
2022-10-23T22:32:33.055Z,99039.75
2022-10-23T22:35:03.556Z,99036.19
2022-10-23T22:37:32.755Z,99040.91
2022-10-23T22:40:02.505Z,99044.09
2022-10-23T22:42:31.838Z,99038.94
2022-10-23T22:45:00.943Z,99041.69
2022-10-23T22:47:31.361Z,99033.03
2022-10-23T22:50:02.056Z,99034.19
2022-10-23T22:52:32.664Z,99044.44
2022-10-23T22:55:02.055Z,99019.13
2022-10-23T22:57:31.857Z,99050.25
2022-10-23T23:00:00.974Z,99052.22
2022-10-23T23:02:30.632Z,99047.88
2022-10-23T23:04:59.970Z,99048.66
2022-10-23T23:07:33.964Z,99053.38
2022-10-23T23:10:03.065Z,99054.94
2022-10-23T23:12:32.477Z,99055.72
2022-10-23T23:15:01.581Z,99054.88
2022-10-23T23:17:30.813Z,99055.66
2022-10-23T23:20:00.147Z,99054.06
2022-10-23T23:22:29.259Z,99044.47
2022-10-23T23:25:00.020Z,99061.06
2022-10-23T23:27:29.383Z,99068.16
2022-10-23T23:29:58.627Z,99061.84
2022-10-23T23:32:27.807Z,99063.81
2022-10-23T23:34:56.898Z,99060.28
2022-10-23T23:37:26.040Z,99057.91
2022-10-23T23:39:55.673Z,99049.19
2022-10-23T23:42:26.162Z,99055.91
2022-10-23T23:45:02.876Z,99057.06
2022-10-23T23:47:40.300Z,99056.66
2022-10-23T23:50:12.795Z,99047.50
2022-10-23T23:52:41.980Z,99055.78
2022-10-23T23:55:11.411Z,99060.97
2022-10-23T23:57:42.164Z,99063.00
